createdAt,value
2017-10-22T00:00:51.290Z,14.73
2017-10-22T00:03:19.183Z,14.71
2017-10-22T00:05:47.418Z,14.71
2017-10-22T00:08:15.536Z,14.47
2017-10-22T00:10:43.514Z,14.69
2017-10-22T00:13:11.163Z,14.60
2017-10-22T00:15:38.892Z,14.68
2017-10-22T00:18:06.897Z,14.66
2017-10-22T00:20:34.929Z,14.41
2017-10-22T00:23:03.666Z,14.31
2017-10-22T00:25:32.728Z,14.47
2017-10-22T00:28:01.291Z,14.37
2017-10-22T00:30:29.947Z,14.22
2017-10-22T00:32:57.677Z,14.32
2017-10-22T00:35:25.331Z,14.16
2017-10-22T00:37:53.652Z,14.15
2017-10-22T00:40:22.664Z,14.37
2017-10-22T00:42:50.306Z,14.08
2017-10-22T00:45:28.104Z,14.23
2017-10-22T00:47:56.613Z,14.11
2017-10-22T00:50:24.356Z,14.25
2017-10-22T00:52:52.097Z,14.18
2017-10-22T00:55:20.668Z,14.00
2017-10-22T00:57:48.380Z,14.06
2017-10-22T01:00:16.090Z,14.00
2017-10-22T01:02:44.241Z,13.95
2017-10-22T01:05:12.909Z,13.97
2017-10-22T01:07:40.654Z,13.90
2017-10-22T01:10:08.524Z,13.81
2017-10-22T01:12:36.260Z,13.96
2017-10-22T01:15:04.085Z,13.77
2017-10-22T01:17:31.767Z,13.83
2017-10-22T01:19:59.874Z,13.54
2017-10-22T01:22:28.145Z,13.08
2017-10-22T01:24:56.209Z,13.01
2017-10-22T01:27:24.001Z,13.19
2017-10-22T01:29:51.737Z,13.14
2017-10-22T01:32:20.006Z,13.34
2017-10-22T01:34:48.392Z,13.30
2017-10-22T01:37:16.901Z,13.07
2017-10-22T01:39:44.800Z,13.32
2017-10-22T01:42:13.372Z,13.26
2017-10-22T01:44:41.145Z,13.19
2017-10-22T01:47:10.019Z,13.22
2017-10-22T01:49:37.797Z,13.32
2017-10-22T01:52:05.722Z,13.43
2017-10-22T01:54:34.842Z,13.50
2017-10-22T01:57:03.030Z,13.39
2017-10-22T01:59:31.588Z,13.34
2017-10-22T02:01:59.793Z,13.27
2017-10-22T02:04:27.809Z,13.27
2017-10-22T02:06:55.504Z,13.37
2017-10-22T02:09:23.245Z,13.11
2017-10-22T02:11:51.079Z,13.05
2017-10-22T02:14:19.425Z,13.01
2017-10-22T02:16:47.801Z,13.17
2017-10-22T02:19:15.719Z,13.32
2017-10-22T02:21:44.373Z,13.27
2017-10-22T02:24:12.051Z,12.93
2017-10-22T02:26:40.901Z,12.89
2017-10-22T02:29:09.006Z,12.81
2017-10-22T02:31:36.671Z,12.84
2017-10-22T02:34:04.342Z,12.84
2017-10-22T02:36:32.309Z,12.84
2017-10-22T02:39:00.569Z,12.76
2017-10-22T02:41:29.262Z,12.75
2017-10-22T02:43:56.954Z,12.70
2017-10-22T02:46:25.983Z,12.71
2017-10-22T02:48:53.652Z,12.99
2017-10-22T02:51:22.201Z,12.90
2017-10-22T02:53:49.913Z,12.73
2017-10-22T02:56:18.334Z,12.61
2017-10-22T02:58:46.116Z,12.23
2017-10-22T03:01:13.797Z,12.32
2017-10-22T03:03:41.567Z,12.67
2017-10-22T03:06:10.164Z,12.48
2017-10-22T03:08:38.236Z,12.51
2017-10-22T03:11:06.196Z,12.44
2017-10-22T03:13:34.536Z,12.70
2017-10-22T03:16:02.294Z,12.77
2017-10-22T03:18:30.309Z,12.62
2017-10-22T03:20:58.007Z,12.74
2017-10-22T03:23:25.766Z,12.82
2017-10-22T03:25:53.873Z,12.71
2017-10-22T03:28:21.623Z,12.83
2017-10-22T03:30:49.635Z,12.73
2017-10-22T03:33:17.473Z,12.95
2017-10-22T03:35:46.481Z,12.74
2017-10-22T03:38:14.143Z,12.70
2017-10-22T03:40:42.033Z,12.96
2017-10-22T03:43:09.689Z,13.15
2017-10-22T03:45:37.346Z,13.10
2017-10-22T03:48:05.020Z,12.99
2017-10-22T03:50:32.660Z,13.08
2017-10-22T03:53:00.313Z,12.96
2017-10-22T03:55:28.478Z,13.07
2017-10-22T03:57:56.853Z,12.89
2017-10-22T04:00:24.511Z,12.73
2017-10-22T04:02:52.357Z,12.76
2017-10-22T04:05:20.695Z,12.76
2017-10-22T04:07:48.360Z,12.74
2017-10-22T04:10:16.186Z,12.84
2017-10-22T04:12:43.860Z,13.02
2017-10-22T04:15:16.563Z,12.77
2017-10-22T04:17:44.230Z,12.57
2017-10-22T04:20:12.561Z,12.75
2017-10-22T04:22:41.038Z,12.61
2017-10-22T04:25:08.868Z,12.39
2017-10-22T04:27:36.882Z,12.00
2017-10-22T04:30:05.914Z,11.94
2017-10-22T04:32:33.614Z,11.87
2017-10-22T04:35:02.375Z,11.96
2017-10-22T04:37:30.042Z,12.12
2017-10-22T04:39:57.937Z,12.09
2017-10-22T04:42:25.559Z,12.24
2017-10-22T04:44:53.540Z,12.04
2017-10-22T04:47:21.177Z,11.86
2017-10-22T04:49:49.257Z,11.84
2017-10-22T04:52:16.927Z,11.96
2017-10-22T04:54:44.584Z,12.02
2017-10-22T04:57:12.249Z,12.04
2017-10-22T04:59:40.930Z,12.09
2017-10-22T05:02:08.633Z,12.30
2017-10-22T05:04:36.523Z,12.49
2017-10-22T05:07:04.253Z,12.44
2017-10-22T05:09:32.855Z,12.59
2017-10-22T05:12:01.841Z,12.87
2017-10-22T05:14:30.388Z,13.12
2017-10-22T05:16:58.779Z,13.35
2017-10-22T05:19:27.354Z,13.67
2017-10-22T05:21:55.322Z,13.83
2017-10-22T05:24:23.098Z,14.56
2017-10-22T05:26:50.861Z,14.97
2017-10-22T05:29:18.795Z,15.35
2017-10-22T05:31:46.718Z,15.42
2017-10-22T05:34:15.117Z,15.52
2017-10-22T05:36:42.882Z,15.85
2017-10-22T05:39:10.600Z,15.95
2017-10-22T05:41:38.235Z,16.19
2017-10-22T05:44:56.196Z,16.28
2017-10-22T05:47:25.080Z,16.28
2017-10-22T05:49:54.651Z,16.88
2017-10-22T05:52:23.359Z,17.28
2017-10-22T05:54:51.246Z,17.38
2017-10-22T05:57:18.981Z,18.07
2017-10-22T05:59:47.542Z,18.23
2017-10-22T06:02:17.483Z,18.32
2017-10-22T06:04:45.395Z,18.60
2017-10-22T06:07:13.409Z,19.00
2017-10-22T06:09:41.431Z,18.86
2017-10-22T06:12:09.105Z,19.18
2017-10-22T06:14:36.928Z,18.92
2017-10-22T06:17:04.609Z,19.06
2017-10-22T06:19:32.279Z,18.76
2017-10-22T06:22:00.006Z,18.84
2017-10-22T06:24:28.184Z,18.62
2017-10-22T06:26:56.218Z,18.83
2017-10-22T06:29:24.207Z,18.83
2017-10-22T06:31:52.261Z,18.37
2017-10-22T06:34:20.420Z,18.52
2017-10-22T06:36:49.457Z,19.04
2017-10-22T06:39:18.306Z,18.65
2017-10-22T06:41:46.309Z,18.52
2017-10-22T06:44:14.073Z,18.54
2017-10-22T06:46:42.111Z,18.74
2017-10-22T06:49:10.440Z,18.73
2017-10-22T06:51:38.876Z,18.60
2017-10-22T06:54:06.636Z,18.48
2017-10-22T06:56:34.350Z,18.40
2017-10-22T06:59:02.101Z,18.61
2017-10-22T07:01:30.083Z,18.64
2017-10-22T07:03:58.221Z,19.35
2017-10-22T07:06:25.951Z,19.55
2017-10-22T07:08:53.693Z,20.25
2017-10-22T07:11:21.412Z,20.53
2017-10-22T07:13:49.121Z,21.40
2017-10-22T07:16:16.894Z,22.10
2017-10-22T07:18:44.610Z,22.13
2017-10-22T07:21:12.269Z,21.83
2017-10-22T07:23:40.001Z,22.50
2017-10-22T07:26:08.575Z,22.14
2017-10-22T07:28:36.276Z,22.34
2017-10-22T07:31:03.948Z,22.78
2017-10-22T07:33:31.701Z,22.79
2017-10-22T07:35:59.484Z,22.67
2017-10-22T07:38:27.226Z,22.52
2017-10-22T07:40:54.992Z,22.65
2017-10-22T07:43:22.802Z,22.49
2017-10-22T07:45:50.533Z,22.38
2017-10-22T07:48:18.234Z,23.25
2017-10-22T07:50:46.020Z,23.84
2017-10-22T07:53:13.795Z,24.00
2017-10-22T07:55:41.507Z,24.05
2017-10-22T07:58:09.216Z,24.95
2017-10-22T08:00:36.928Z,25.08
2017-10-22T08:03:04.646Z,25.21
2017-10-22T08:05:32.351Z,24.89
2017-10-22T08:08:00.103Z,25.26
2017-10-22T08:10:27.860Z,25.83
2017-10-22T08:12:55.629Z,26.35
2017-10-22T08:15:23.365Z,26.03
2017-10-22T08:17:51.092Z,25.53
2017-10-22T08:20:18.791Z,26.37
2017-10-22T08:22:46.634Z,26.34
2017-10-22T08:25:14.444Z,25.95
2017-10-22T08:27:42.197Z,26.94
2017-10-22T08:30:09.963Z,26.76
2017-10-22T08:32:37.642Z,27.37
2017-10-22T08:35:05.555Z,27.24
2017-10-22T08:37:33.312Z,27.09
2017-10-22T08:40:00.995Z,26.52
2017-10-22T08:42:28.692Z,26.52
2017-10-22T08:44:56.441Z,26.63
2017-10-22T08:47:24.138Z,26.03
2017-10-22T08:49:51.848Z,25.94
2017-10-22T08:52:19.610Z,25.90
2017-10-22T08:54:47.365Z,25.98
2017-10-22T08:57:15.098Z,26.32
2017-10-22T08:59:42.839Z,26.59
2017-10-22T09:02:10.608Z,26.43
2017-10-22T09:04:38.408Z,26.83
2017-10-22T09:07:06.164Z,27.36
2017-10-22T09:09:33.877Z,27.68
2017-10-22T09:12:01.636Z,27.04
2017-10-22T09:14:29.396Z,26.43
2017-10-22T09:16:57.221Z,26.88
2017-10-22T09:19:25.065Z,26.90
2017-10-22T09:21:52.778Z,26.55
2017-10-22T09:24:20.553Z,26.56
2017-10-22T09:26:48.409Z,26.46
2017-10-22T09:29:16.119Z,26.41
2017-10-22T09:31:44.893Z,25.95
2017-10-22T09:34:12.926Z,25.98
2017-10-22T09:36:40.688Z,26.09
2017-10-22T09:39:08.418Z,26.23
2017-10-22T09:41:36.104Z,26.77
2017-10-22T09:44:03.849Z,26.80
2017-10-22T09:46:31.587Z,26.59
2017-10-22T09:48:59.416Z,26.64
2017-10-22T09:51:27.217Z,27.08
2017-10-22T09:53:54.973Z,26.03
2017-10-22T09:56:23.695Z,26.83
2017-10-22T09:58:51.703Z,27.40
2017-10-22T10:04:37.319Z,27.43
2017-10-22T10:07:15.382Z,27.15
2017-10-22T10:09:49.244Z,27.26
2017-10-22T10:12:26.280Z,27.62
2017-10-22T10:14:56.494Z,27.29
2017-10-22T10:17:37.889Z,27.95
2017-10-22T10:20:08.513Z,28.14
2017-10-22T10:22:37.044Z,27.72
2017-10-22T10:25:05.657Z,27.51
2017-10-22T10:27:33.489Z,27.75
2017-10-22T10:30:02.012Z,27.93
2017-10-22T10:32:29.815Z,27.60
2017-10-22T10:34:57.712Z,27.77
2017-10-22T10:37:25.990Z,27.57
2017-10-22T10:39:54.368Z,27.73
2017-10-22T10:42:22.148Z,27.77
2017-10-22T10:44:49.933Z,27.88
2017-10-22T10:50:29.405Z,27.31
2017-10-22T10:52:57.143Z,27.33
2017-10-22T10:55:24.856Z,27.67
2017-10-22T10:57:52.552Z,27.81
2017-10-22T11:00:21.382Z,27.98
2017-10-22T11:02:49.311Z,27.83
2017-10-22T11:05:17.089Z,28.26
2017-10-22T11:07:45.521Z,28.33
2017-10-22T11:10:13.296Z,28.36
2017-10-22T11:12:42.290Z,28.22
2017-10-22T11:15:10.799Z,27.92
2017-10-22T11:17:38.518Z,27.22
2017-10-22T11:20:06.237Z,27.20
2017-10-22T11:22:33.999Z,27.06
2017-10-22T11:25:02.201Z,26.65
2017-10-22T11:27:30.787Z,26.49
2017-10-22T11:30:00.686Z,26.24
2017-10-22T11:32:28.797Z,25.81
2017-10-22T11:34:57.385Z,24.85
2017-10-22T11:37:25.104Z,25.15
2017-10-22T11:39:52.844Z,25.24
2017-10-22T11:42:21.117Z,26.07
2017-10-22T11:44:48.836Z,26.33
2017-10-22T11:47:16.673Z,26.22
2017-10-22T11:49:45.312Z,26.11
2017-10-22T11:52:13.518Z,26.17
2017-10-22T11:54:42.124Z,26.10
2017-10-22T11:57:24.419Z,25.85
2017-10-22T11:59:52.139Z,26.05
2017-10-22T12:02:19.807Z,25.97
2017-10-22T12:04:49.948Z,25.69
2017-10-22T12:07:19.605Z,25.91
2017-10-22T12:10:02.900Z,25.92
2017-10-22T12:12:31.602Z,25.79
2017-10-22T12:15:00.078Z,25.84
2017-10-22T12:17:30.641Z,25.98
2017-10-22T12:19:59.490Z,25.73
2017-10-22T12:22:27.288Z,25.67
2017-10-22T12:24:55.100Z,25.72
2017-10-22T12:27:23.748Z,25.94
2017-10-22T12:29:51.438Z,26.12
2017-10-22T12:32:19.149Z,25.97
2017-10-22T12:34:47.459Z,26.02
2017-10-22T12:37:16.174Z,26.08
2017-10-22T12:39:59.951Z,25.91
2017-10-22T12:42:37.709Z,25.77
2017-10-22T12:45:06.389Z,25.65
2017-10-22T12:47:35.733Z,25.63
2017-10-22T12:50:04.140Z,25.50
2017-10-22T12:52:31.964Z,25.40
2017-10-22T12:54:59.712Z,25.35
2017-10-22T12:57:27.539Z,25.31
2017-10-22T12:59:55.589Z,25.40
2017-10-22T13:02:38.614Z,25.43
2017-10-22T13:05:07.216Z,25.30
2017-10-22T13:07:35.831Z,25.27
2017-10-22T13:10:03.613Z,25.14
2017-10-22T13:12:31.232Z,25.21
2017-10-22T13:14:58.864Z,24.95
2017-10-22T13:17:26.530Z,24.89
2017-10-22T13:19:54.142Z,25.00
2017-10-22T13:22:22.033Z,24.99
2017-10-22T13:24:49.795Z,24.94
2017-10-22T13:27:17.828Z,24.84
2017-10-22T13:29:45.998Z,24.71
2017-10-22T13:32:13.934Z,24.55
2017-10-22T13:34:42.205Z,24.49
2017-10-22T13:37:10.960Z,24.47
2017-10-22T13:39:39.692Z,24.63
2017-10-22T13:42:07.863Z,24.60
2017-10-22T13:44:36.922Z,24.64
2017-10-22T13:47:05.367Z,24.42
2017-10-22T13:49:33.065Z,24.36
2017-10-22T13:52:01.480Z,24.26
2017-10-22T13:54:34.025Z,24.22
2017-10-22T13:57:10.669Z,24.03
2017-10-22T13:59:38.607Z,23.90
2017-10-22T14:02:08.472Z,23.95
2017-10-22T14:04:36.107Z,23.90
2017-10-22T14:07:03.862Z,23.87
2017-10-22T14:09:31.553Z,23.86
2017-10-22T14:11:59.288Z,23.91
2017-10-22T14:14:26.942Z,23.86
2017-10-22T14:16:54.641Z,23.72
2017-10-22T14:19:22.351Z,23.45
2017-10-22T14:21:49.987Z,23.38
2017-10-22T14:24:18.355Z,23.21
2017-10-22T14:26:47.852Z,23.17
2017-10-22T14:29:15.529Z,23.18
2017-10-22T14:31:43.179Z,23.11
2017-10-22T14:34:12.651Z,23.09
2017-10-22T14:36:41.126Z,23.00
2017-10-22T14:39:09.113Z,22.85
2017-10-22T14:41:37.552Z,22.82
2017-10-22T14:44:06.121Z,22.70
2017-10-22T14:46:35.284Z,22.63
2017-10-22T14:49:04.268Z,22.62
2017-10-22T14:51:33.348Z,22.60
2017-10-22T14:54:02.418Z,22.62
2017-10-22T14:56:31.670Z,22.48
2017-10-22T14:59:00.796Z,22.54
2017-10-22T15:01:34.128Z,22.50
2017-10-22T15:04:02.215Z,22.36
2017-10-22T15:06:30.757Z,22.14
2017-10-22T15:08:58.489Z,21.72
2017-10-22T15:11:27.902Z,21.85
2017-10-22T15:13:56.976Z,21.77
2017-10-22T15:16:24.921Z,21.63
2017-10-22T15:18:53.036Z,21.72
2017-10-22T15:21:22.990Z,21.68
2017-10-22T15:23:50.828Z,21.59
2017-10-22T15:26:18.613Z,21.48
2017-10-22T15:28:46.741Z,21.53
2017-10-22T15:31:15.495Z,21.47
2017-10-22T15:33:45.060Z,21.38
2017-10-22T15:36:15.291Z,21.33
2017-10-22T15:38:43.608Z,21.13
2017-10-22T15:41:13.272Z,21.06
2017-10-22T15:43:41.532Z,20.99
2017-10-22T15:46:09.466Z,20.80
2017-10-22T15:48:38.988Z,20.69
2017-10-22T15:51:07.774Z,20.47
2017-10-22T15:53:36.340Z,20.41
2017-10-22T15:56:06.853Z,20.31
2017-10-22T15:58:36.294Z,20.35
2017-10-22T16:01:04.617Z,20.10
2017-10-22T16:03:33.275Z,20.07
2017-10-22T16:06:00.971Z,20.03
2017-10-22T16:08:28.732Z,19.83
2017-10-22T16:10:56.491Z,19.95
2017-10-22T16:13:24.164Z,19.82
2017-10-22T16:15:51.937Z,19.76
2017-10-22T16:18:19.749Z,19.78
2017-10-22T16:20:48.152Z,19.87
2017-10-22T16:23:15.945Z,19.84
2017-10-22T16:25:43.601Z,19.64
2017-10-22T16:28:11.316Z,19.58
2017-10-22T16:30:39.879Z,19.56
2017-10-22T16:33:07.761Z,19.47
2017-10-22T16:35:35.511Z,19.54
2017-10-22T16:38:03.146Z,19.49
2017-10-22T16:40:37.124Z,19.38
2017-10-22T16:43:06.107Z,19.30
2017-10-22T16:45:34.069Z,19.36
2017-10-22T16:48:03.542Z,19.26
2017-10-22T16:50:33.694Z,19.16
2017-10-22T16:53:01.673Z,19.09
2017-10-22T16:55:30.222Z,18.96
2017-10-22T16:58:02.901Z,18.65
2017-10-22T17:00:31.103Z,18.78
2017-10-22T17:02:58.830Z,18.59
2017-10-22T17:05:26.523Z,18.31
2017-10-22T17:07:54.312Z,18.10
2017-10-22T17:10:21.982Z,17.81
2017-10-22T17:12:51.173Z,17.46
2017-10-22T17:15:18.877Z,17.15
2017-10-22T17:17:47.145Z,17.06
2017-10-22T17:20:17.766Z,17.08
2017-10-22T17:22:46.568Z,17.10
2017-10-22T17:25:14.277Z,17.10
2017-10-22T17:27:42.106Z,16.96
2017-10-22T17:30:10.829Z,16.97
2017-10-22T17:32:38.760Z,16.88
2017-10-22T17:35:06.474Z,16.92
2017-10-22T17:37:34.666Z,16.86
2017-10-22T17:40:04.097Z,16.90
2017-10-22T17:42:32.236Z,16.81
2017-10-22T17:44:59.841Z,16.80
2017-10-22T17:47:27.951Z,16.70
2017-10-22T17:49:55.554Z,16.80
2017-10-22T17:52:23.377Z,16.96
2017-10-22T17:54:51.224Z,16.95
2017-10-22T17:57:19.041Z,16.91
2017-10-22T17:59:46.676Z,16.92
2017-10-22T18:02:14.290Z,16.93
2017-10-22T18:04:41.966Z,16.72
2017-10-22T18:07:09.640Z,16.66
2017-10-22T18:09:37.264Z,16.73
2017-10-22T18:12:05.113Z,16.78
2017-10-22T18:14:32.973Z,16.71
2017-10-22T18:17:00.706Z,16.65
2017-10-22T18:19:28.348Z,16.65
2017-10-22T18:21:56.459Z,16.64
2017-10-22T18:24:24.673Z,16.62
2017-10-22T18:26:52.422Z,16.51
2017-10-22T18:29:20.066Z,16.50
2017-10-22T18:31:47.702Z,16.39
2017-10-22T18:34:15.284Z,16.39
2017-10-22T18:36:43.129Z,16.42
2017-10-22T18:39:12.951Z,16.22
2017-10-22T18:41:40.720Z,16.41
2017-10-22T18:44:08.365Z,16.30
2017-10-22T18:46:36.168Z,16.32
2017-10-22T18:49:03.774Z,16.47
2017-10-22T18:51:41.346Z,16.43
2017-10-22T18:54:09.580Z,16.39
2017-10-22T18:56:37.232Z,16.40
2017-10-22T18:59:05.313Z,16.40
2017-10-22T19:01:32.990Z,16.31
2017-10-22T19:04:00.622Z,16.25
2017-10-22T19:06:28.190Z,16.26
2017-10-22T19:08:56.749Z,16.15
2017-10-22T19:11:24.319Z,16.13
2017-10-22T19:13:51.892Z,16.15
2017-10-22T19:16:19.585Z,15.87
2017-10-22T19:18:47.224Z,15.85
2017-10-22T19:21:14.805Z,15.87
2017-10-22T19:23:42.466Z,15.68
2017-10-22T19:26:10.913Z,15.61
2017-10-22T19:28:38.513Z,15.50
2017-10-22T19:31:06.179Z,15.42
2017-10-22T19:33:33.781Z,15.46
2017-10-22T19:36:01.348Z,15.31
2017-10-22T19:38:28.965Z,15.27
2017-10-22T19:40:56.760Z,15.12
2017-10-22T19:43:24.332Z,15.21
2017-10-22T19:45:51.949Z,15.02
2017-10-22T19:48:19.522Z,15.06
2017-10-22T19:50:47.096Z,14.99
2017-10-22T19:53:14.773Z,15.04
2017-10-22T19:55:42.584Z,15.11
2017-10-22T19:58:10.175Z,15.06
2017-10-22T20:00:58.912Z,15.08
2017-10-22T20:03:26.503Z,15.07
2017-10-22T20:05:54.366Z,15.15
2017-10-22T20:08:21.988Z,15.14
2017-10-22T20:10:49.780Z,15.17
2017-10-22T20:13:17.363Z,15.27
2017-10-22T20:15:45.045Z,15.31
2017-10-22T20:18:12.869Z,15.23
2017-10-22T20:20:41.377Z,15.25
2017-10-22T20:23:09.533Z,15.28
2017-10-22T20:25:37.245Z,15.35
2017-10-22T20:28:05.045Z,15.39
2017-10-22T20:30:32.769Z,15.47
2017-10-22T20:33:01.043Z,15.42
2017-10-22T20:35:28.620Z,15.47
2017-10-22T20:37:56.272Z,15.54
2017-10-22T20:40:24.106Z,15.62
2017-10-22T20:42:51.739Z,15.74
2017-10-22T20:45:19.403Z,15.70
2017-10-22T20:47:47.218Z,15.77
2017-10-22T20:50:14.841Z,15.80
2017-10-22T20:52:43.455Z,15.89
2017-10-22T20:55:11.288Z,15.93
2017-10-22T20:57:39.456Z,15.91
2017-10-22T21:00:09.525Z,15.95
2017-10-22T21:02:38.828Z,15.95
2017-10-22T21:05:06.529Z,15.97
2017-10-22T21:07:34.149Z,16.09
2017-10-22T21:10:02.299Z,15.93
2017-10-22T21:12:30.439Z,15.96
2017-10-22T21:14:58.060Z,15.88
2017-10-22T21:17:25.704Z,15.94
2017-10-22T21:19:53.362Z,15.85
2017-10-22T21:22:22.487Z,15.84
2017-10-22T21:24:50.315Z,15.92
2017-10-22T21:27:18.345Z,15.78
2017-10-22T21:29:46.256Z,15.85
2017-10-22T21:32:13.872Z,15.85
2017-10-22T21:34:41.658Z,15.93
2017-10-22T21:37:09.326Z,16.03
2017-10-22T21:39:37.623Z,16.03
2017-10-22T21:42:05.301Z,16.04
2017-10-22T21:44:33.086Z,16.05
2017-10-22T21:47:03.393Z,16.10
2017-10-22T21:49:31.297Z,16.20
2017-10-22T21:51:59.837Z,16.31
2017-10-22T21:54:28.601Z,16.39
2017-10-22T21:56:56.289Z,16.37
2017-10-22T21:59:23.913Z,16.42
2017-10-22T22:01:59.996Z,16.22
2017-10-22T22:04:29.980Z,16.19
2017-10-22T22:07:10.077Z,16.20
2017-10-22T22:09:37.791Z,16.15
2017-10-22T22:12:05.472Z,16.15
2017-10-22T22:14:33.220Z,16.17
2017-10-22T22:17:00.872Z,16.06
2017-10-22T22:19:28.593Z,15.95
2017-10-22T22:21:57.268Z,15.90
2017-10-22T22:24:25.485Z,15.88
2017-10-22T22:26:53.146Z,15.84
2017-10-22T22:29:20.887Z,15.88
2017-10-22T22:31:48.555Z,15.80
2017-10-22T22:34:16.549Z,15.75
2017-10-22T22:36:44.141Z,15.64
2017-10-22T22:39:11.778Z,15.66
2017-10-22T22:41:39.374Z,15.58
2017-10-22T22:44:07.016Z,15.46
2017-10-22T22:46:34.652Z,15.38
2017-10-22T22:49:02.838Z,15.36
2017-10-22T22:51:31.731Z,15.47
2017-10-22T22:54:00.264Z,15.39
2017-10-22T22:56:28.265Z,15.35
2017-10-22T22:58:56.000Z,15.28
2017-10-22T23:01:24.144Z,15.26
2017-10-22T23:03:52.249Z,15.24
2017-10-22T23:06:20.041Z,15.33
2017-10-22T23:08:48.382Z,15.25
2017-10-22T23:11:16.902Z,15.09
2017-10-22T23:13:45.395Z,15.17
2017-10-22T23:16:13.432Z,15.20
2017-10-22T23:18:41.029Z,15.07
2017-10-22T23:21:09.778Z,15.20
2017-10-22T23:23:38.483Z,15.12
2017-10-22T23:26:06.196Z,15.08
2017-10-22T23:28:33.773Z,15.03
2017-10-22T23:31:02.274Z,15.00
2017-10-22T23:33:30.933Z,15.10
2017-10-22T23:35:58.537Z,14.98
2017-10-22T23:38:26.160Z,15.07
2017-10-22T23:40:54.060Z,15.09
2017-10-22T23:43:21.728Z,15.02
2017-10-22T23:45:49.535Z,15.13
2017-10-22T23:48:17.343Z,15.04
2017-10-22T23:50:45.845Z,15.00
2017-10-22T23:53:13.536Z,14.97
2017-10-22T23:55:41.089Z,14.99
2017-10-22T23:58:08.645Z,14.99
